sensor_id;sensor_type;location;lat;lon;timestamp;P1;durP1;ratioP1;P2;durP2;ratioP2
70729;SDS011;58315;53.336;55.932;2022-10-16T00:01:20;2.28;;;1.30;;
70729;SDS011;58315;53.336;55.932;2022-10-16T00:03:49;2.38;;;1.50;;
70729;SDS011;58315;53.336;55.932;2022-10-16T00:06:16;2.15;;;1.40;;
70729;SDS011;58315;53.336;55.932;2022-10-16T00:08:43;2.22;;;1.40;;
70729;SDS011;58315;53.336;55.932;2022-10-16T00:11:11;2.50;;;1.48;;
70729;SDS011;58315;53.336;55.932;2022-10-16T00:13:42;2.28;;;1.40;;
70729;SDS011;58315;53.336;55.932;2022-10-16T00:16:10;3.30;;;1.42;;
70729;SDS011;58315;53.336;55.932;2022-10-16T00:18:38;3.53;;;1.67;;
70729;SDS011;58315;53.336;55.932;2022-10-16T00:21:05;2.40;;;1.40;;
70729;SDS011;58315;53.336;55.932;2022-10-16T00:23:55;3.33;;;1.63;;
70729;SDS011;58315;53.336;55.932;2022-10-16T00:26:25;3.42;;;1.70;;
70729;SDS011;58315;53.336;55.932;2022-10-16T00:28:52;5.63;;;1.80;;
70729;SDS011;58315;53.336;55.932;2022-10-16T00:31:19;4.05;;;1.90;;
70729;SDS011;58315;53.336;55.932;2022-10-16T00:33:46;3.08;;;1.60;;
70729;SDS011;58315;53.336;55.932;2022-10-16T00:36:13;6.00;;;1.80;;
70729;SDS011;58315;53.336;55.932;2022-10-16T00:38:43;4.35;;;1.83;;
70729;SDS011;58315;53.336;55.932;2022-10-16T00:41:10;4.63;;;2.42;;
70729;SDS011;58315;53.336;55.932;2022-10-16T00:43:43;4.85;;;2.00;;
70729;SDS011;58315;53.336;55.932;2022-10-16T00:46:21;5.85;;;2.25;;
70729;SDS011;58315;53.336;55.932;2022-10-16T00:48:51;6.43;;;2.47;;
70729;SDS011;58315;53.336;55.932;2022-10-16T00:51:22;3.97;;;2.05;;
70729;SDS011;58315;53.336;55.932;2022-10-16T00:53:51;3.35;;;1.83;;
70729;SDS011;58315;53.336;55.932;2022-10-16T00:56:17;4.68;;;2.00;;
70729;SDS011;58315;53.336;55.932;2022-10-16T00:58:44;4.05;;;2.03;;
70729;SDS011;58315;53.336;55.932;2022-10-16T01:01:10;4.43;;;1.85;;
70729;SDS011;58315;53.336;55.932;2022-10-16T01:03:36;6.60;;;1.92;;
70729;SDS011;58315;53.336;55.932;2022-10-16T01:08:56;5.20;;;2.40;;
70729;SDS011;58315;53.336;55.932;2022-10-16T01:13:55;3.72;;;1.90;;
70729;SDS011;58315;53.336;55.932;2022-10-16T01:16:32;3.13;;;1.60;;
70729;SDS011;58315;53.336;55.932;2022-10-16T01:19:08;6.50;;;1.83;;
70729;SDS011;58315;53.336;55.932;2022-10-16T01:21:40;9.60;;;2.10;;
70729;SDS011;58315;53.336;55.932;2022-10-16T01:35:22;3.75;;;1.60;;
70729;SDS011;58315;53.336;55.932;2022-10-16T01:40:30;9.90;;;2.35;;
70729;SDS011;58315;53.336;55.932;2022-10-16T01:43:04;4.03;;;2.40;;
70729;SDS011;58315;53.336;55.932;2022-10-16T01:45:32;3.15;;;2.10;;
70729;SDS011;58315;53.336;55.932;2022-10-16T01:48:00;4.65;;;2.20;;
70729;SDS011;58315;53.336;55.932;2022-10-16T01:50:29;4.60;;;2.42;;
70729;SDS011;58315;53.336;55.932;2022-10-16T01:52:59;4.25;;;2.17;;
70729;SDS011;58315;53.336;55.932;2022-10-16T01:55:29;4.55;;;2.05;;
70729;SDS011;58315;53.336;55.932;2022-10-16T01:58:01;3.63;;;2.13;;
70729;SDS011;58315;53.336;55.932;2022-10-16T02:00:30;4.57;;;2.15;;
70729;SDS011;58315;53.336;55.932;2022-10-16T02:02:57;5.45;;;2.50;;
70729;SDS011;58315;53.336;55.932;2022-10-16T02:05:26;4.97;;;2.30;;
70729;SDS011;58315;53.336;55.932;2022-10-16T02:08:13;7.45;;;1.88;;
70729;SDS011;58315;53.336;55.932;2022-10-16T02:10:39;4.20;;;1.92;;
70729;SDS011;58315;53.336;55.932;2022-10-16T02:13:06;4.10;;;2.15;;
70729;SDS011;58315;53.336;55.932;2022-10-16T02:16:08;6.25;;;2.25;;
70729;SDS011;58315;53.336;55.932;2022-10-16T02:18:35;4.18;;;2.28;;
70729;SDS011;58315;53.336;55.932;2022-10-16T02:26:12;6.32;;;2.42;;
70729;SDS011;58315;53.336;55.932;2022-10-16T02:28:46;4.65;;;2.40;;
70729;SDS011;58315;53.336;55.932;2022-10-16T02:31:22;6.72;;;2.85;;
70729;SDS011;58315;53.336;55.932;2022-10-16T02:33:53;6.00;;;2.85;;
70729;SDS011;58315;53.336;55.932;2022-10-16T02:36:23;6.20;;;3.13;;
70729;SDS011;58315;53.336;55.932;2022-10-16T02:38:51;6.18;;;2.88;;
70729;SDS011;58315;53.336;55.932;2022-10-16T02:41:20;10.35;;;2.88;;
70729;SDS011;58315;53.336;55.932;2022-10-16T02:43:47;5.32;;;2.53;;
70729;SDS011;58315;53.336;55.932;2022-10-16T02:46:12;3.85;;;2.45;;
70729;SDS011;58315;53.336;55.932;2022-10-16T02:48:38;6.03;;;2.60;;
70729;SDS011;58315;53.336;55.932;2022-10-16T02:51:04;4.90;;;2.38;;
70729;SDS011;58315;53.336;55.932;2022-10-16T02:53:30;4.88;;;2.35;;
70729;SDS011;58315;53.336;55.932;2022-10-16T02:55:56;9.57;;;2.67;;
70729;SDS011;58315;53.336;55.932;2022-10-16T02:58:22;7.55;;;2.58;;
70729;SDS011;58315;53.336;55.932;2022-10-16T03:00:48;6.85;;;2.35;;
70729;SDS011;58315;53.336;55.932;2022-10-16T03:03:14;4.13;;;2.10;;
70729;SDS011;58315;53.336;55.932;2022-10-16T03:05:40;3.88;;;2.00;;
70729;SDS011;58315;53.336;55.932;2022-10-16T03:08:09;4.28;;;2.35;;
70729;SDS011;58315;53.336;55.932;2022-10-16T03:10:35;8.77;;;2.15;;
70729;SDS011;58315;53.336;55.932;2022-10-16T03:13:01;3.92;;;1.90;;
70729;SDS011;58315;53.336;55.932;2022-10-16T03:15:27;5.80;;;2.05;;
70729;SDS011;58315;53.336;55.932;2022-10-16T03:17:54;3.80;;;2.00;;
70729;SDS011;58315;53.336;55.932;2022-10-16T03:20:20;3.78;;;2.30;;
70729;SDS011;58315;53.336;55.932;2022-10-16T03:22:46;2.92;;;1.65;;
70729;SDS011;58315;53.336;55.932;2022-10-16T03:25:12;3.95;;;2.20;;
70729;SDS011;58315;53.336;55.932;2022-10-16T03:27:38;3.65;;;1.95;;
70729;SDS011;58315;53.336;55.932;2022-10-16T03:30:04;4.75;;;2.05;;
70729;SDS011;58315;53.336;55.932;2022-10-16T03:32:30;6.28;;;2.85;;
70729;SDS011;58315;53.336;55.932;2022-10-16T03:34:57;15.68;;;5.85;;
70729;SDS011;58315;53.336;55.932;2022-10-16T03:37:23;4.55;;;2.47;;
70729;SDS011;58315;53.336;55.932;2022-10-16T03:39:49;3.65;;;2.53;;
70729;SDS011;58315;53.336;55.932;2022-10-16T03:42:15;4.28;;;2.78;;
70729;SDS011;58315;53.336;55.932;2022-10-16T03:44:40;7.45;;;3.05;;
70729;SDS011;58315;53.336;55.932;2022-10-16T03:47:07;6.90;;;3.05;;
70729;SDS011;58315;53.336;55.932;2022-10-16T03:49:33;6.63;;;3.08;;
70729;SDS011;58315;53.336;55.932;2022-10-16T03:51:58;4.72;;;2.75;;
70729;SDS011;58315;53.336;55.932;2022-10-16T03:54:24;4.57;;;2.80;;
70729;SDS011;58315;53.336;55.932;2022-10-16T03:56:50;5.28;;;3.00;;
70729;SDS011;58315;53.336;55.932;2022-10-16T03:59:17;5.57;;;3.08;;
70729;SDS011;58315;53.336;55.932;2022-10-16T04:01:43;7.43;;;2.45;;
70729;SDS011;58315;53.336;55.932;2022-10-16T04:04:09;4.45;;;2.28;;
70729;SDS011;58315;53.336;55.932;2022-10-16T04:06:35;5.47;;;2.95;;
70729;SDS011;58315;53.336;55.932;2022-10-16T04:09:01;7.05;;;2.75;;
70729;SDS011;58315;53.336;55.932;2022-10-16T04:11:27;4.90;;;3.00;;
70729;SDS011;58315;53.336;55.932;2022-10-16T04:13:53;12.48;;;3.33;;
70729;SDS011;58315;53.336;55.932;2022-10-16T04:16:19;6.75;;;2.72;;
70729;SDS011;58315;53.336;55.932;2022-10-16T04:18:45;8.32;;;2.72;;
70729;SDS011;58315;53.336;55.932;2022-10-16T04:21:11;8.00;;;3.03;;
70729;SDS011;58315;53.336;55.932;2022-10-16T04:23:37;5.47;;;3.00;;
70729;SDS011;58315;53.336;55.932;2022-10-16T04:26:03;12.18;;;3.60;;
70729;SDS011;58315;53.336;55.932;2022-10-16T04:28:29;7.72;;;3.67;;
70729;SDS011;58315;53.336;55.932;2022-10-16T04:30:55;11.73;;;4.05;;
70729;SDS011;58315;53.336;55.932;2022-10-16T04:33:21;7.32;;;3.80;;
70729;SDS011;58315;53.336;55.932;2022-10-16T04:35:47;14.50;;;3.83;;
70729;SDS011;58315;53.336;55.932;2022-10-16T04:38:13;16.67;;;4.80;;
70729;SDS011;58315;53.336;55.932;2022-10-16T04:40:39;10.35;;;5.22;;
70729;SDS011;58315;53.336;55.932;2022-10-16T04:43:07;10.80;;;4.68;;
70729;SDS011;58315;53.336;55.932;2022-10-16T04:45:33;12.90;;;5.75;;
70729;SDS011;58315;53.336;55.932;2022-10-16T04:47:59;12.60;;;5.47;;
70729;SDS011;58315;53.336;55.932;2022-10-16T04:50:25;17.85;;;6.45;;
70729;SDS011;58315;53.336;55.932;2022-10-16T04:53:04;17.48;;;7.43;;
70729;SDS011;58315;53.336;55.932;2022-10-16T04:55:31;12.70;;;6.20;;
70729;SDS011;58315;53.336;55.932;2022-10-16T04:57:57;13.77;;;6.32;;
70729;SDS011;58315;53.336;55.932;2022-10-16T05:00:23;19.15;;;5.90;;
70729;SDS011;58315;53.336;55.932;2022-10-16T05:02:50;17.58;;;6.68;;
70729;SDS011;58315;53.336;55.932;2022-10-16T05:05:16;22.15;;;5.35;;
70729;SDS011;58315;53.336;55.932;2022-10-16T05:07:45;23.17;;;5.90;;
70729;SDS011;58315;53.336;55.932;2022-10-16T05:10:11;12.48;;;5.30;;
70729;SDS011;58315;53.336;55.932;2022-10-16T05:12:37;12.20;;;5.32;;
70729;SDS011;58315;53.336;55.932;2022-10-16T05:15:03;19.50;;;5.20;;
70729;SDS011;58315;53.336;55.932;2022-10-16T05:17:32;14.82;;;5.13;;
70729;SDS011;58315;53.336;55.932;2022-10-16T05:19:58;11.75;;;5.50;;
70729;SDS011;58315;53.336;55.932;2022-10-16T05:22:25;18.90;;;5.97;;
70729;SDS011;58315;53.336;55.932;2022-10-16T05:24:50;14.32;;;6.13;;
70729;SDS011;58315;53.336;55.932;2022-10-16T05:27:16;13.32;;;5.45;;
70729;SDS011;58315;53.336;55.932;2022-10-16T05:29:48;16.88;;;6.50;;
70729;SDS011;58315;53.336;55.932;2022-10-16T05:32:15;28.33;;;6.72;;
70729;SDS011;58315;53.336;55.932;2022-10-16T05:34:42;19.30;;;6.93;;
70729;SDS011;58315;53.336;55.932;2022-10-16T05:37:09;16.88;;;6.18;;
70729;SDS011;58315;53.336;55.932;2022-10-16T05:39:35;14.27;;;6.32;;
70729;SDS011;58315;53.336;55.932;2022-10-16T05:42:02;15.68;;;6.72;;
70729;SDS011;58315;53.336;55.932;2022-10-16T05:44:28;16.00;;;6.78;;
70729;SDS011;58315;53.336;55.932;2022-10-16T05:46:54;14.32;;;6.32;;
70729;SDS011;58315;53.336;55.932;2022-10-16T05:49:20;14.50;;;5.60;;
70729;SDS011;58315;53.336;55.932;2022-10-16T05:51:46;18.52;;;6.20;;
70729;SDS011;58315;53.336;55.932;2022-10-16T05:54:12;12.52;;;5.60;;
70729;SDS011;58315;53.336;55.932;2022-10-16T05:56:38;11.38;;;6.07;;
70729;SDS011;58315;53.336;55.932;2022-10-16T05:59:04;16.08;;;5.85;;
70729;SDS011;58315;53.336;55.932;2022-10-16T06:01:31;12.32;;;5.75;;
70729;SDS011;58315;53.336;55.932;2022-10-16T06:03:58;17.75;;;5.90;;
70729;SDS011;58315;53.336;55.932;2022-10-16T06:06:25;13.55;;;5.60;;
70729;SDS011;58315;53.336;55.932;2022-10-16T06:08:52;15.07;;;5.05;;
70729;SDS011;58315;53.336;55.932;2022-10-16T06:11:21;12.27;;;5.43;;
70729;SDS011;58315;53.336;55.932;2022-10-16T06:13:53;12.18;;;5.28;;
70729;SDS011;58315;53.336;55.932;2022-10-16T06:16:22;16.00;;;5.50;;
70729;SDS011;58315;53.336;55.932;2022-10-16T06:18:50;9.90;;;4.95;;
70729;SDS011;58315;53.336;55.932;2022-10-16T06:21:18;11.23;;;5.30;;
70729;SDS011;58315;53.336;55.932;2022-10-16T06:23:46;14.30;;;5.68;;
70729;SDS011;58315;53.336;55.932;2022-10-16T06:26:13;12.00;;;5.88;;
70729;SDS011;58315;53.336;55.932;2022-10-16T06:28:41;12.07;;;5.53;;
70729;SDS011;58315;53.336;55.932;2022-10-16T06:31:08;10.30;;;5.30;;
70729;SDS011;58315;53.336;55.932;2022-10-16T06:33:35;11.10;;;5.25;;
70729;SDS011;58315;53.336;55.932;2022-10-16T06:36:06;12.00;;;5.10;;
70729;SDS011;58315;53.336;55.932;2022-10-16T06:38:37;9.70;;;4.95;;
70729;SDS011;58315;53.336;55.932;2022-10-16T06:41:03;11.32;;;5.35;;
70729;SDS011;58315;53.336;55.932;2022-10-16T06:43:31;9.98;;;4.88;;
70729;SDS011;58315;53.336;55.932;2022-10-16T06:45:58;12.98;;;5.15;;
70729;SDS011;58315;53.336;55.932;2022-10-16T06:48:25;11.13;;;4.85;;
70729;SDS011;58315;53.336;55.932;2022-10-16T06:53:29;9.15;;;4.53;;
70729;SDS011;58315;53.336;55.932;2022-10-16T06:55:57;11.57;;;4.68;;
70729;SDS011;58315;53.336;55.932;2022-10-16T06:58:23;10.15;;;4.97;;
70729;SDS011;58315;53.336;55.932;2022-10-16T07:00:54;14.18;;;7.63;;
70729;SDS011;58315;53.336;55.932;2022-10-16T07:03:21;14.77;;;6.00;;
70729;SDS011;58315;53.336;55.932;2022-10-16T07:05:48;9.85;;;4.80;;
70729;SDS011;58315;53.336;55.932;2022-10-16T07:08:14;10.68;;;4.70;;
70729;SDS011;58315;53.336;55.932;2022-10-16T07:10:39;11.10;;;5.13;;
70729;SDS011;58315;53.336;55.932;2022-10-16T07:13:05;24.90;;;4.95;;
70729;SDS011;58315;53.336;55.932;2022-10-16T07:15:33;10.65;;;4.40;;
70729;SDS011;58315;53.336;55.932;2022-10-16T07:17:59;9.27;;;4.80;;
70729;SDS011;58315;53.336;55.932;2022-10-16T07:20:25;11.15;;;5.07;;
70729;SDS011;58315;53.336;55.932;2022-10-16T07:22:51;12.02;;;4.85;;
70729;SDS011;58315;53.336;55.932;2022-10-16T07:25:18;10.90;;;4.25;;
70729;SDS011;58315;53.336;55.932;2022-10-16T07:27:43;13.93;;;4.55;;
70729;SDS011;58315;53.336;55.932;2022-10-16T07:30:10;7.93;;;4.22;;
70729;SDS011;58315;53.336;55.932;2022-10-16T07:32:36;11.77;;;4.70;;
70729;SDS011;58315;53.336;55.932;2022-10-16T07:35:02;10.13;;;4.95;;
70729;SDS011;58315;53.336;55.932;2022-10-16T07:37:28;8.52;;;4.20;;
70729;SDS011;58315;53.336;55.932;2022-10-16T07:39:54;11.48;;;5.00;;
70729;SDS011;58315;53.336;55.932;2022-10-16T07:42:20;10.82;;;4.82;;
70729;SDS011;58315;53.336;55.932;2022-10-16T07:44:46;7.55;;;4.15;;
70729;SDS011;58315;53.336;55.932;2022-10-16T07:47:12;12.95;;;4.80;;
70729;SDS011;58315;53.336;55.932;2022-10-16T07:49:38;9.70;;;4.88;;
70729;SDS011;58315;53.336;55.932;2022-10-16T07:52:04;9.30;;;4.97;;
70729;SDS011;58315;53.336;55.932;2022-10-16T07:54:30;11.93;;;4.97;;
70729;SDS011;58315;53.336;55.932;2022-10-16T07:56:56;18.85;;;5.07;;
70729;SDS011;58315;53.336;55.932;2022-10-16T07:59:23;17.60;;;6.35;;
70729;SDS011;58315;53.336;55.932;2022-10-16T08:01:49;12.82;;;6.47;;
70729;SDS011;58315;53.336;55.932;2022-10-16T08:04:15;10.90;;;5.50;;
70729;SDS011;58315;53.336;55.932;2022-10-16T08:06:41;9.88;;;5.07;;
70729;SDS011;58315;53.336;55.932;2022-10-16T08:09:08;13.15;;;5.38;;
70729;SDS011;58315;53.336;55.932;2022-10-16T08:11:34;12.70;;;5.45;;
70729;SDS011;58315;53.336;55.932;2022-10-16T08:14:00;11.60;;;5.25;;
70729;SDS011;58315;53.336;55.932;2022-10-16T08:16:26;12.07;;;6.38;;
70729;SDS011;58315;53.336;55.932;2022-10-16T08:18:52;12.45;;;6.25;;
70729;SDS011;58315;53.336;55.932;2022-10-16T08:21:19;12.15;;;5.93;;
70729;SDS011;58315;53.336;55.932;2022-10-16T08:23:46;11.82;;;4.63;;
70729;SDS011;58315;53.336;55.932;2022-10-16T08:26:13;11.82;;;4.65;;
70729;SDS011;58315;53.336;55.932;2022-10-16T08:28:39;7.57;;;4.35;;
70729;SDS011;58315;53.336;55.932;2022-10-16T08:31:06;8.20;;;4.32;;
70729;SDS011;58315;53.336;55.932;2022-10-16T08:33:32;12.77;;;4.70;;
70729;SDS011;58315;53.336;55.932;2022-10-16T08:36:00;11.25;;;4.88;;
70729;SDS011;58315;53.336;55.932;2022-10-16T08:38:26;11.68;;;4.60;;
70729;SDS011;58315;53.336;55.932;2022-10-16T08:40:52;10.30;;;4.32;;
70729;SDS011;58315;53.336;55.932;2022-10-16T08:46:18;10.00;;;4.30;;
70729;SDS011;58315;53.336;55.932;2022-10-16T08:48:56;10.57;;;4.63;;
70729;SDS011;58315;53.336;55.932;2022-10-16T08:51:25;13.68;;;4.75;;
70729;SDS011;58315;53.336;55.932;2022-10-16T08:54:37;11.90;;;4.53;;
70729;SDS011;58315;53.336;55.932;2022-10-16T08:56:46;10.52;;;5.15;;
70729;SDS011;58315;53.336;55.932;2022-10-16T08:59:12;13.73;;;5.20;;
70729;SDS011;58315;53.336;55.932;2022-10-16T09:01:44;7.95;;;4.30;;
70729;SDS011;58315;53.336;55.932;2022-10-16T09:12:28;10.40;;;4.53;;
70729;SDS011;58315;53.336;55.932;2022-10-16T09:15:07;8.35;;;4.00;;
70729;SDS011;58315;53.336;55.932;2022-10-16T09:23:12;5.60;;;3.10;;
70729;SDS011;58315;53.336;55.932;2022-10-16T09:25:47;9.45;;;3.70;;
70729;SDS011;58315;53.336;55.932;2022-10-16T09:28:16;8.30;;;3.88;;
70729;SDS011;58315;53.336;55.932;2022-10-16T09:30:43;8.90;;;3.78;;
70729;SDS011;58315;53.336;55.932;2022-10-16T09:33:12;9.40;;;3.63;;
70729;SDS011;58315;53.336;55.932;2022-10-16T09:35:40;6.90;;;3.00;;
70729;SDS011;58315;53.336;55.932;2022-10-16T09:38:08;11.27;;;3.17;;
70729;SDS011;58315;53.336;55.932;2022-10-16T09:40:47;4.85;;;2.92;;
70729;SDS011;58315;53.336;55.932;2022-10-16T09:46:28;7.72;;;4.30;;
70729;SDS011;58315;53.336;55.932;2022-10-16T09:49:02;10.35;;;3.75;;
70729;SDS011;58315;53.336;55.932;2022-10-16T09:51:48;6.05;;;2.67;;
70729;SDS011;58315;53.336;55.932;2022-10-16T09:54:19;10.27;;;3.83;;
70729;SDS011;58315;53.336;55.932;2022-10-16T09:56:47;8.98;;;3.45;;
70729;SDS011;58315;53.336;55.932;2022-10-16T09:59:18;5.45;;;2.97;;
70729;SDS011;58315;53.336;55.932;2022-10-16T10:01:49;8.23;;;3.47;;
70729;SDS011;58315;53.336;55.932;2022-10-16T10:04:18;8.70;;;3.58;;
70729;SDS011;58315;53.336;55.932;2022-10-16T10:06:46;5.65;;;3.17;;
70729;SDS011;58315;53.336;55.932;2022-10-16T10:11:58;8.23;;;3.55;;
70729;SDS011;58315;53.336;55.932;2022-10-16T10:17:07;6.65;;;3.30;;
70729;SDS011;58315;53.336;55.932;2022-10-16T10:19:37;6.35;;;3.08;;
70729;SDS011;58315;53.336;55.932;2022-10-16T10:36:39;6.72;;;3.47;;
70729;SDS011;58315;53.336;55.932;2022-10-16T10:41:59;12.77;;;4.18;;
70729;SDS011;58315;53.336;55.932;2022-10-16T10:50:22;6.15;;;3.28;;
70729;SDS011;58315;53.336;55.932;2022-10-16T10:52:59;7.43;;;3.35;;
70729;SDS011;58315;53.336;55.932;2022-10-16T10:58:47;10.05;;;4.72;;
70729;SDS011;58315;53.336;55.932;2022-10-16T11:04:34;18.52;;;7.82;;
70729;SDS011;58315;53.336;55.932;2022-10-16T11:07:08;18.98;;;8.82;;
70729;SDS011;58315;53.336;55.932;2022-10-16T11:09:41;18.38;;;7.32;;
70729;SDS011;58315;53.336;55.932;2022-10-16T11:12:18;19.30;;;6.80;;
70729;SDS011;58315;53.336;55.932;2022-10-16T11:15:04;14.43;;;6.45;;
70729;SDS011;58315;53.336;55.932;2022-10-16T11:17:39;14.32;;;6.07;;
70729;SDS011;58315;53.336;55.932;2022-10-16T11:26:08;10.15;;;4.80;;
70729;SDS011;58315;53.336;55.932;2022-10-16T11:28:56;10.75;;;4.20;;
70729;SDS011;58315;53.336;55.932;2022-10-16T11:31:36;8.60;;;3.80;;
70729;SDS011;58315;53.336;55.932;2022-10-16T11:36:42;12.15;;;5.10;;
70729;SDS011;58315;53.336;55.932;2022-10-16T11:39:29;12.07;;;4.00;;
70729;SDS011;58315;53.336;55.932;2022-10-16T11:42:08;10.82;;;4.25;;
70729;SDS011;58315;53.336;55.932;2022-10-16T11:47:54;7.85;;;3.88;;
70729;SDS011;58315;53.336;55.932;2022-10-16T11:50:43;26.15;;;4.75;;
70729;SDS011;58315;53.336;55.932;2022-10-16T11:53:35;6.75;;;4.25;;
70729;SDS011;58315;53.336;55.932;2022-10-16T11:56:15;9.35;;;4.40;;
70729;SDS011;58315;53.336;55.932;2022-10-16T12:04:17;10.63;;;4.85;;
70729;SDS011;58315;53.336;55.932;2022-10-16T12:07:03;9.70;;;4.65;;
70729;SDS011;58315;53.336;55.932;2022-10-16T12:09:37;10.07;;;4.43;;
70729;SDS011;58315;53.336;55.932;2022-10-16T12:12:05;7.45;;;3.92;;
70729;SDS011;58315;53.336;55.932;2022-10-16T12:14:59;10.05;;;4.13;;
70729;SDS011;58315;53.336;55.932;2022-10-16T12:17:35;9.05;;;4.13;;
70729;SDS011;58315;53.336;55.932;2022-10-16T12:23:20;11.73;;;4.07;;
70729;SDS011;58315;53.336;55.932;2022-10-16T12:28:00;6.10;;;3.75;;
70729;SDS011;58315;53.336;55.932;2022-10-16T12:30:32;7.30;;;3.50;;
70729;SDS011;58315;53.336;55.932;2022-10-16T12:33:53;10.88;;;4.10;;
70729;SDS011;58315;53.336;55.932;2022-10-16T12:35:58;10.02;;;3.72;;
70729;SDS011;58315;53.336;55.932;2022-10-16T12:38:49;5.90;;;3.45;;
70729;SDS011;58315;53.336;55.932;2022-10-16T12:41:25;6.07;;;3.50;;
70729;SDS011;58315;53.336;55.932;2022-10-16T12:43:53;8.10;;;3.92;;
70729;SDS011;58315;53.336;55.932;2022-10-16T12:46:24;13.55;;;4.03;;
70729;SDS011;58315;53.336;55.932;2022-10-16T12:49:22;11.15;;;4.18;;
70729;SDS011;58315;53.336;55.932;2022-10-16T12:51:54;8.10;;;3.67;;
70729;SDS011;58315;53.336;55.932;2022-10-16T12:54:23;12.07;;;3.75;;
70729;SDS011;58315;53.336;55.932;2022-10-16T13:00:24;11.85;;;4.28;;
70729;SDS011;58315;53.336;55.932;2022-10-16T13:08:42;8.95;;;4.15;;
70729;SDS011;58315;53.336;55.932;2022-10-16T13:17:10;9.32;;;4.35;;
70729;SDS011;58315;53.336;55.932;2022-10-16T13:28:02;6.35;;;3.60;;
70729;SDS011;58315;53.336;55.932;2022-10-16T13:30:43;10.18;;;3.38;;
70729;SDS011;58315;53.336;55.932;2022-10-16T13:33:19;8.20;;;3.33;;
70729;SDS011;58315;53.336;55.932;2022-10-16T13:35:49;12.00;;;3.25;;
70729;SDS011;58315;53.336;55.932;2022-10-16T13:38:23;12.55;;;3.67;;
70729;SDS011;58315;53.336;55.932;2022-10-16T13:40:53;17.27;;;3.90;;
70729;SDS011;58315;53.336;55.932;2022-10-16T13:43:26;6.57;;;3.42;;
70729;SDS011;58315;53.336;55.932;2022-10-16T13:45:57;8.95;;;3.67;;
70729;SDS011;58315;53.336;55.932;2022-10-16T13:48:23;10.23;;;4.38;;
70729;SDS011;58315;53.336;55.932;2022-10-16T13:51:00;10.90;;;4.65;;
70729;SDS011;58315;53.336;55.932;2022-10-16T13:53:37;11.45;;;5.20;;
70729;SDS011;58315;53.336;55.932;2022-10-16T13:56:04;21.40;;;4.95;;
70729;SDS011;58315;53.336;55.932;2022-10-16T13:58:32;22.35;;;6.22;;
70729;SDS011;58315;53.336;55.932;2022-10-16T14:01:00;16.67;;;6.22;;
70729;SDS011;58315;53.336;55.932;2022-10-16T14:03:28;14.95;;;6.28;;
70729;SDS011;58315;53.336;55.932;2022-10-16T14:06:00;11.43;;;5.25;;
70729;SDS011;58315;53.336;55.932;2022-10-16T14:08:28;12.68;;;4.53;;
70729;SDS011;58315;53.336;55.932;2022-10-16T14:10:56;14.05;;;4.63;;
70729;SDS011;58315;53.336;55.932;2022-10-16T14:13:29;13.68;;;5.28;;
70729;SDS011;58315;53.336;55.932;2022-10-16T14:18:25;9.50;;;4.60;;
70729;SDS011;58315;53.336;55.932;2022-10-16T14:20:53;14.55;;;4.78;;
70729;SDS011;58315;53.336;55.932;2022-10-16T14:29:08;14.38;;;4.90;;
70729;SDS011;58315;53.336;55.932;2022-10-16T14:31:37;11.95;;;4.07;;
70729;SDS011;58315;53.336;55.932;2022-10-16T14:34:22;16.70;;;3.45;;
70729;SDS011;58315;53.336;55.932;2022-10-16T14:39:54;14.77;;;4.43;;
70729;SDS011;58315;53.336;55.932;2022-10-16T14:42:22;7.57;;;3.17;;
70729;SDS011;58315;53.336;55.932;2022-10-16T14:44:50;6.57;;;2.80;;
70729;SDS011;58315;53.336;55.932;2022-10-16T14:47:19;6.25;;;2.95;;
70729;SDS011;58315;53.336;55.932;2022-10-16T14:49:50;8.45;;;3.17;;
70729;SDS011;58315;53.336;55.932;2022-10-16T14:52:17;8.85;;;2.97;;
70729;SDS011;58315;53.336;55.932;2022-10-16T14:54:43;8.52;;;2.83;;
70729;SDS011;58315;53.336;55.932;2022-10-16T14:57:15;4.80;;;2.53;;
70729;SDS011;58315;53.336;55.932;2022-10-16T14:59:44;7.40;;;2.60;;
70729;SDS011;58315;53.336;55.932;2022-10-16T15:04:48;5.95;;;2.47;;
70729;SDS011;58315;53.336;55.932;2022-10-16T15:07:14;9.05;;;2.58;;
70729;SDS011;58315;53.336;55.932;2022-10-16T15:09:41;8.23;;;2.47;;
70729;SDS011;58315;53.336;55.932;2022-10-16T15:12:06;7.30;;;2.80;;
70729;SDS011;58315;53.336;55.932;2022-10-16T15:14:32;7.03;;;2.47;;
70729;SDS011;58315;53.336;55.932;2022-10-16T15:16:59;5.43;;;2.45;;
70729;SDS011;58315;53.336;55.932;2022-10-16T15:19:25;8.35;;;2.80;;
70729;SDS011;58315;53.336;55.932;2022-10-16T15:21:50;6.78;;;3.00;;
70729;SDS011;58315;53.336;55.932;2022-10-16T15:24:17;7.20;;;2.80;;
70729;SDS011;58315;53.336;55.932;2022-10-16T15:27:02;6.32;;;3.28;;
70729;SDS011;58315;53.336;55.932;2022-10-16T15:29:46;6.30;;;2.80;;
70729;SDS011;58315;53.336;55.932;2022-10-16T15:32:13;6.18;;;3.22;;
70729;SDS011;58315;53.336;55.932;2022-10-16T15:34:38;5.47;;;3.03;;
70729;SDS011;58315;53.336;55.932;2022-10-16T15:37:04;5.00;;;2.38;;
70729;SDS011;58315;53.336;55.932;2022-10-16T15:39:30;11.55;;;2.92;;
70729;SDS011;58315;53.336;55.932;2022-10-16T15:41:56;5.07;;;2.55;;
70729;SDS011;58315;53.336;55.932;2022-10-16T15:44:22;5.55;;;2.83;;
70729;SDS011;58315;53.336;55.932;2022-10-16T15:46:50;10.77;;;3.03;;
70729;SDS011;58315;53.336;55.932;2022-10-16T15:49:20;4.85;;;2.72;;
70729;SDS011;58315;53.336;55.932;2022-10-16T15:51:48;5.60;;;3.50;;
70729;SDS011;58315;53.336;55.932;2022-10-16T15:54:14;7.10;;;2.85;;
70729;SDS011;58315;53.336;55.932;2022-10-16T15:56:40;5.57;;;3.03;;
70729;SDS011;58315;53.336;55.932;2022-10-16T15:59:06;8.75;;;3.03;;
70729;SDS011;58315;53.336;55.932;2022-10-16T16:01:34;8.40;;;3.20;;
70729;SDS011;58315;53.336;55.932;2022-10-16T16:04:00;6.05;;;3.22;;
70729;SDS011;58315;53.336;55.932;2022-10-16T16:06:26;8.20;;;3.58;;
70729;SDS011;58315;53.336;55.932;2022-10-16T16:08:52;6.22;;;3.05;;
70729;SDS011;58315;53.336;55.932;2022-10-16T16:11:19;5.47;;;3.10;;
70729;SDS011;58315;53.336;55.932;2022-10-16T16:13:45;6.40;;;3.17;;
70729;SDS011;58315;53.336;55.932;2022-10-16T16:16:13;13.68;;;4.95;;
70729;SDS011;58315;53.336;55.932;2022-10-16T16:18:40;9.98;;;5.10;;
70729;SDS011;58315;53.336;55.932;2022-10-16T16:21:12;6.75;;;3.00;;
70729;SDS011;58315;53.336;55.932;2022-10-16T16:23:38;7.60;;;3.53;;
70729;SDS011;58315;53.336;55.932;2022-10-16T16:26:05;10.00;;;4.03;;
70729;SDS011;58315;53.336;55.932;2022-10-16T16:28:35;8.90;;;3.70;;
70729;SDS011;58315;53.336;55.932;2022-10-16T16:31:01;14.38;;;4.07;;
70729;SDS011;58315;53.336;55.932;2022-10-16T16:33:28;8.23;;;3.90;;
70729;SDS011;58315;53.336;55.932;2022-10-16T16:36:01;10.75;;;4.07;;
70729;SDS011;58315;53.336;55.932;2022-10-16T16:38:29;11.02;;;4.43;;
70729;SDS011;58315;53.336;55.932;2022-10-16T16:40:55;10.02;;;4.40;;
70729;SDS011;58315;53.336;55.932;2022-10-16T16:43:22;12.23;;;4.40;;
70729;SDS011;58315;53.336;55.932;2022-10-16T16:45:50;10.35;;;4.80;;
70729;SDS011;58315;53.336;55.932;2022-10-16T16:48:16;7.82;;;3.92;;
70729;SDS011;58315;53.336;55.932;2022-10-16T16:50:42;7.88;;;4.18;;
70729;SDS011;58315;53.336;55.932;2022-10-16T16:53:08;8.02;;;3.45;;
70729;SDS011;58315;53.336;55.932;2022-10-16T16:55:34;11.77;;;5.57;;
70729;SDS011;58315;53.336;55.932;2022-10-16T16:58:00;12.05;;;5.00;;
70729;SDS011;58315;53.336;55.932;2022-10-16T17:00:26;9.15;;;3.53;;
70729;SDS011;58315;53.336;55.932;2022-10-16T17:02:52;12.20;;;4.05;;